Sovereign — 9HUE9 — position and weather

sailwx.info

Track history (hours):
 
Tides and Currents Weather Stations Pressure Air Temp Water Temp Dewpoint Dewpoint Depression Visibility Wind Speed Wind Dir Waves Ship Positions

Sovereign

Last reported at 2017-Apr-28 16:15 UTC. Time now 2017-Apr-29 13:23 UTC.
Position N 43°04' E 005°58'.

Length 269 m; draft 7.8 m.

Type: Passenger vessel. MMSI: 249539000.

Date/timePositionNaut miles runAvg speedWind from/ knotsBaromVisibWave heightAir tempDewpointWater temp
2017-Apr-28 16:15N 43°04' E 005°58'2 8.2
2017-Apr-28 16:00N 43°05' E 005°56'2 2.0
2017-Apr-28 15:10N 43°06' E 005°54'0 0.0
2017-Apr-28 14:55N 43°06' E 005°54'0 0.0
2017-Apr-28 13:52N 43°06' E 005°54'0 0.0
2017-Apr-28 13:28N 43°06' E 005°54'0 0.0
2017-Apr-28 12:55N 43°06' E 005°54'0 0.0
2017-Apr-28 12:28N 43°06' E 005°54'0 0.0
2017-Apr-28 11:58N 43°06' E 005°54'0 0.0
2017-Apr-28 11:28N 43°06' E 005°54'0 0.0
2017-Apr-28 10:58N 43°06' E 005°54'0 0.0
2017-Apr-28 10:28N 43°06' E 005°54'0 0.0
2017-Apr-28 09:58N 43°06' E 005°54'0 0.0
2017-Apr-28 09:28N 43°06' E 005°54'0 0.0
2017-Apr-28 08:58N 43°06' E 005°54'0 0.0
2017-Apr-28 08:28N 43°06' E 005°54'0 0.0
2017-Apr-28 07:58N 43°06' E 005°54'0 0.0
2017-Apr-28 07:28N 43°06' E 005°54'0 0.0
2017-Apr-28 06:58N 43°06' E 005°54'0 0.0
2017-Apr-28 06:28N 43°06' E 005°54'0 0.0
2017-Apr-28 06:00N 43°06' E 005°54'0 0.3
2017-Apr-28 05:30N 43°06' E 005°54'2 4.3
2017-Apr-28 05:00N 43°05' E 005°57'3 5.4
2017-Apr-28 04:23N 43°03' E 006°01'34 4.6
2017-Apr-27 20:55N 42°55' E 006°46'6 7.1
2017-Apr-27 20:08N 42°59' E 006°52'4 7.6
2017-Apr-27 19:37N 43°02' E 006°55'1 7.6
2017-Apr-27 19:29N 43°03' E 006°56'4 7.9
2017-Apr-27 19:00N 43°06' E 006°59'510.2
2017-Apr-27 18:30N 43°10' E 007°04'510.5
2017-Apr-27 17:59N 43°14' E 007°08'510.5
2017-Apr-27 17:30N 43°18' E 007°13'510.1
2017-Apr-27 17:00N 43°22' E 007°16'510.2
2017-Apr-27 16:30N 43°27' E 007°17'510.0
2017-Apr-27 16:00N 43°32' E 007°18'5 9.9
2017-Apr-27 15:30N 43°37' E 007°18'4 7.6
2017-Apr-27 15:00N 43°41' E 007°19'1 0.6
2017-Apr-27 13:49N 43°42' E 007°19'0 0.1
2017-Apr-27 13:25N 43°42' E 007°19'0 0.1
2017-Apr-27 12:49N 43°42' E 007°19'0 0.0
2017-Apr-27 12:25N 43°42' E 007°19'0 0.0
2017-Apr-27 11:37N 43°42' E 007°19'0 0.1
2017-Apr-27 11:25N 43°42' E 007°19'0 0.1
2017-Apr-27 10:55N 43°42' E 007°19'0 0.0
2017-Apr-27 09:37N 43°42' E 007°19'0 0.1
2017-Apr-27 08:25N 43°42' E 007°19'0 0.1
2017-Apr-27 07:49N 43°42' E 007°19'0 0.1
2017-Apr-27 07:01N 43°42' E 007°19'0 0.3
2017-Apr-27 06:34N 43°42' E 007°19'0 0.1
2017-Apr-27 06:27N 43°42' E 007°19'1 3.2
2017-Apr-27 06:00N 43°40' E 007°19'4 7.4
2017-Apr-27 05:30N 43°39' E 007°24'5 9.1
2017-Apr-27 05:00N 43°39' E 007°30'510.0
2017-Apr-27 04:30N 43°39' E 007°37'510.9
2017-Apr-27 04:00N 43°38' E 007°45'510.9
2017-Apr-27 03:30N 43°38' E 007°52'611.1
2017-Apr-27 03:00N 43°38' E 007°60'611.4
2017-Apr-27 02:30N 43°37' E 008°08'611.4
2017-Apr-27 01:57N 43°37' E 008°16'1211.4
2017-Apr-27 00:53N 43°36' E 008°33'411.5
2017-Apr-27 00:30N 43°36' E 008°39'611.6
2017-Apr-27 00:00N 43°35' E 008°47'611.6
2017-Apr-26 23:30N 43°35' E 008°55'611.9
2017-Apr-26 23:00N 43°35' E 009°03'611.8
2017-Apr-26 22:30N 43°34' E 009°11'611.6
2017-Apr-26 22:00N 43°34' E 009°19'611.7
2017-Apr-26 21:30N 43°34' E 009°27'611.7
2017-Apr-26 21:00N 43°33' E 009°35'611.5
2017-Apr-26 20:30N 43°33' E 009°43'611.4
2017-Apr-26 20:00N 43°32' E 009°51'611.4
2017-Apr-26 19:30N 43°31' E 009°59'611.7
2017-Apr-26 19:00N 43°30' E 010°07'510.9
2017-Apr-26 18:30N 43°32' E 010°14'3 5.7
2017-Apr-26 17:58N 43°33' E 010°18'0 0.0
2017-Apr-26 17:25N 43°33' E 010°18'0 0.0
2017-Apr-26 16:58N 43°33' E 010°18'0 0.0
2017-Apr-26 16:28N 43°33' E 010°18'0 0.0
2017-Apr-26 15:55N 43°33' E 010°18'0 0.0
2017-Apr-26 15:28N 43°33' E 010°18'0 0.0
2017-Apr-26 14:58N 43°33' E 010°18'0 0.0
2017-Apr-26 14:28N 43°33' E 010°18'0 0.0
2017-Apr-26 13:22N 43°33' E 010°18'0 0.0
2017-Apr-26 12:55N 43°33' E 010°18'0 0.0
2017-Apr-26 12:28N 43°33' E 010°18'0 0.0
2017-Apr-26 11:58N 43°33' E 010°18'0 0.0
2017-Apr-26 11:28N 43°33' E 010°18'0 0.0
2017-Apr-26 10:58N 43°33' E 010°18'0 0.0
2017-Apr-26 10:19N 43°33' E 010°18'0 0.0
2017-Apr-26 09:58N 43°33' E 010°18'0 0.0
2017-Apr-26 09:28N 43°33' E 010°18'0 0.0
2017-Apr-26 08:58N 43°33' E 010°18'0 0.0
2017-Apr-26 08:25N 43°33' E 010°18'0 0.0
2017-Apr-26 07:58N 43°33' E 010°18'0 0.0
2017-Apr-26 07:25N 43°33' E 010°18'0 0.0
2017-Apr-26 06:58N 43°33' E 010°18'0 0.0
2017-Apr-26 06:28N 43°33' E 010°18'0 0.0
2017-Apr-26 05:58N 43°33' E 010°18'0 0.2
2017-Apr-26 05:30N 43°33' E 010°18'3 6.7
2017-Apr-26 05:00N 43°31' E 010°15'4 8.0
2017-Apr-26 04:30N 43°27' E 010°12'510.7
2017-Apr-26 04:00N 43°22' E 010°10'611.5
2017-Apr-26 03:30N 43°17' E 010°07'611.4
2017-Apr-26 03:00N 43°11' E 010°05'510.7
2017-Apr-26 02:30N 43°06' E 010°02'612.3
2017-Apr-26 02:00N 43°00' E 009°59'2110.5
2017-Apr-25 23:58N 42°40' E 010°08'713.7
2017-Apr-25 23:26N 42°34' E 010°15'913.8
2017-Apr-25 22:49N 42°28' E 010°22'4413.1
2017-Apr-25 19:30N 42°00' E 011°08'713.6
2017-Apr-25 19:00N 42°02' E 011°17'125 5.6
2017-Apr-24 20:32N 40°42' E 013°25'014.2
2017-Apr-24 20:30N 40°42' E 013°26'714.2
2017-Apr-24 20:00N 40°40' E 013°35'814.3
2017-Apr-24 19:28N 40°38' E 013°45'714.5
2017-Apr-24 19:00N 40°38' E 013°54'21 2.7
2017-Apr-24 11:21N 40°50' E 014°15'42212.0
2017-Apr-23 00:06N 41°18' E 004°57'4916.8
2017-Apr-22 21:12N 41°17' E 003°52'1416.5
2017-Apr-22 20:23N 41°17' E 003°34'1816.5
2017-Apr-22 19:18N 41°17' E 003°10'1616.5
2017-Apr-22 18:19N 41°17' E 002°49'516.4
2017-Apr-22 18:00N 41°16' E 002°42'916.4
2017-Apr-22 17:28N 41°15' E 002°31'816.5
2017-Apr-22 17:00N 41°15' E 002°20'814.5
2017-Apr-22 16:28N 41°17' E 002°11'4 9.0
2017-Apr-22 16:00N 41°22' E 002°11'0 0.2
2017-Apr-22 15:29N 41°22' E 002°11'0 0.0
2017-Apr-22 14:14N 41°22' E 002°11'0 0.0
2017-Apr-22 13:14N 41°22' E 002°11'0 0.0
2017-Apr-22 12:59N 41°22' E 002°11'0 0.0
2017-Apr-22 12:29N 41°22' E 002°11'0 0.0
2017-Apr-22 11:59N 41°22' E 002°11'0 0.0
2017-Apr-22 11:26N 41°22' E 002°11'0 0.0
2017-Apr-22 10:47N 41°22' E 002°11'0 0.0
2017-Apr-22 09:44N 41°22' E 002°11'0 0.0
2017-Apr-22 07:02N 41°22' E 002°11'0 0.1
2017-Apr-22 06:48N 41°22' E 002°11'0 0.3
2017-Apr-22 06:30N 41°22' E 002°11'5 6.7
2017-Apr-22 05:43N 41°17' E 002°12'414.8
2017-Apr-22 05:26N 41°16' E 002°17'716.0
2017-Apr-22 04:59N 41°17' E 002°27'1215.3
2017-Apr-22 04:14N 41°21' E 002°41'4314.3
2017-Apr-22 01:12N 41°44' E 003°30'414.6
2017-Apr-22 00:54N 41°47' E 003°35'3213.9
2017-Apr-21 22:35N 42°05' E 004°10'3313.8
2017-Apr-21 20:11N 42°24' E 004°47'3215.8
2017-Apr-21 18:11N 42°42' E 005°22'3414.2
2017-Apr-21 15:48N 43°05' E 005°56'2 6.3
2017-Apr-21 15:30N 43°06' E 005°54'0 0.3
2017-Apr-21 14:57N 43°06' E 005°54'0 0.0
2017-Apr-21 14:27N 43°06' E 005°54'0 0.0
2017-Apr-21 13:27N 43°06' E 005°54'0 0.0
2017-Apr-21 12:57N 43°06' E 005°54'0 0.0
2017-Apr-21 12:27N 43°06' E 005°54'0 0.0
2017-Apr-21 11:57N 43°06' E 005°54'0 0.0
2017-Apr-21 11:27N 43°06' E 005°54'0 0.0
2017-Apr-21 10:57N 43°06' E 005°54'0 0.0
2017-Apr-21 10:27N 43°06' E 005°54'0 0.0
2017-Apr-21 09:57N 43°06' E 005°54'0 0.0
2017-Apr-21 09:27N 43°06' E 005°54'0 0.0
2017-Apr-21 08:57N 43°06' E 005°54'0 0.0
2017-Apr-21 08:27N 43°06' E 005°54'0 0.0
2017-Apr-21 07:57N 43°06' E 005°54'0 0.0
2017-Apr-21 07:27N 43°06' E 005°54'0 0.0
2017-Apr-21 06:57N 43°06' E 005°54'0 0.0
2017-Apr-21 06:27N 43°06' E 005°54'0 0.0
2017-Apr-21 05:57N 43°06' E 005°54'0 0.3
2017-Apr-21 05:31N 43°06' E 005°54'1 2.5
2017-Apr-21 05:00N 43°05' E 005°55'4 7.4
2017-Apr-21 04:31N 43°04' E 006°00'40 5.1
2017-Apr-20 20:43N 43°02' E 006°55'2 8.0
2017-Apr-20 20:28N 43°03' E 006°57'4 8.2
2017-Apr-20 20:00N 43°06' E 006°60'4 8.1
2017-Apr-20 19:29N 43°09' E 007°04'4 8.1
2017-Apr-20 19:01N 43°12' E 007°07'4 8.0
2017-Apr-20 18:30N 43°15' E 007°11'4 8.3
2017-Apr-20 18:00N 43°18' E 007°15'4 8.1
2017-Apr-20 17:30N 43°22' E 007°16'4 8.1
2017-Apr-20 17:00N 43°26' E 007°17'4 7.7
2017-Apr-20 16:30N 43°30' E 007°17'4 8.0
2017-Apr-20 16:00N 43°34' E 007°18'4 8.2
2017-Apr-20 15:30N 43°38' E 007°18'3 6.6
2017-Apr-20 15:00N 43°42' E 007°19'0 0.2
2017-Apr-20 13:59N 43°42' E 007°19'0 0.1
2017-Apr-20 13:23N 43°42' E 007°19'0 0.0
2017-Apr-20 12:53N 43°42' E 007°19'0 0.0
2017-Apr-20 12:08N 43°42' E 007°19'0 0.2
2017-Apr-20 11:56N 43°42' E 007°19'0 0.0
2017-Apr-20 11:29N 43°42' E 007°19'0 0.0
2017-Apr-20 10:11N 43°42' E 007°19'0 0.2
2017-Apr-20 09:59N 43°42' E 007°19'0 0.1
2017-Apr-20 07:53N 43°42' E 007°19'0 0.0
2017-Apr-20 06:53N 43°42' E 007°19'0 0.0
2017-Apr-20 06:30N 43°42' E 007°19'1 1.1
2017-Apr-20 06:00N 43°41' E 007°19'3 6.0
2017-Apr-20 05:30N 43°39' E 007°22'4 8.9
2017-Apr-20 05:00N 43°39' E 007°28'611.2
2017-Apr-20 04:30N 43°39' E 007°36'611.9
2017-Apr-20 04:00N 43°38' E 007°44'612.5
2017-Apr-20 03:30N 43°38' E 007°53'612.3
2017-Apr-20 02:59N 43°37' E 008°02'611.9
2017-Apr-20 02:30N 43°37' E 008°10'611.6
2017-Apr-20 02:00N 43°37' E 008°18'611.5
2017-Apr-20 01:30N 43°36' E 008°26'611.6
2017-Apr-20 01:00N 43°36' E 008°33'611.6
2017-Apr-20 00:30N 43°36' E 008°41'611.7
2017-Apr-20 00:00N 43°35' E 008°49'611.5
2017-Apr-19 23:30N 43°35' E 008°57'611.4
2017-Apr-19 23:00N 43°35' E 009°05'611.4
2017-Apr-19 22:30N 43°34' E 009°13'611.3
2017-Apr-19 22:00N 43°34' E 009°21'611.3
2017-Apr-19 21:30N 43°33' E 009°29'611.6
2017-Apr-19 21:00N 43°33' E 009°37'611.5
2017-Apr-19 20:30N 43°33' E 009°45'611.2
2017-Apr-19 20:00N 43°32' E 009°52'510.9
2017-Apr-19 19:30N 43°31' E 009°60'511.0
2017-Apr-19 19:00N 43°30' E 010°07'611.4
2017-Apr-19 18:30N 43°32' E 010°15'3 5.0
2017-Apr-19 18:00N 43°33' E 010°18'0 0.0
2017-Apr-19 17:24N 43°33' E 010°18'0 0.0
2017-Apr-19 16:54N 43°33' E 010°18'0 0.0
2017-Apr-19 16:30N 43°33' E 010°18'0 0.0
2017-Apr-19 16:00N 43°33' E 010°18'0 0.0
2017-Apr-19 15:30N 43°33' E 010°18'0 0.0
2017-Apr-19 15:00N 43°33' E 010°18'0 0.0
2017-Apr-19 14:30N 43°33' E 010°18'0 0.0
2017-Apr-19 13:24N 43°33' E 010°18'0 0.0
2017-Apr-19 13:00N 43°33' E 010°18'0 0.0
2017-Apr-19 12:30N 43°33' E 010°18'0 0.0
2017-Apr-19 11:57N 43°33' E 010°18'0 0.0
2017-Apr-19 11:30N 43°33' E 010°18'0 0.0
2017-Apr-19 11:00N 43°33' E 010°18'0 0.0
2017-Apr-19 10:30N 43°33' E 010°18'0 0.0
2017-Apr-19 10:00N 43°33' E 010°18'0 0.0
2017-Apr-19 09:30N 43°33' E 010°18'0 0.0
2017-Apr-19 09:00N 43°33' E 010°18'0 0.0
2017-Apr-19 08:24N 43°33' E 010°18'0 0.0
2017-Apr-19 08:00N 43°33' E 010°18'0 0.0
2017-Apr-19 07:30N 43°33' E 010°18'0 0.0
2017-Apr-19 07:00N 43°33' E 010°18'0 0.7
2017-Apr-19 06:30N 43°33' E 010°17'4 7.2
2017-Apr-19 06:01N 43°30' E 010°15'714.0
2017-Apr-19 05:31N 43°23' E 010°11'714.3
2017-Apr-19 05:01N 43°17' E 010°07'714.4
2017-Apr-19 04:31N 43°10' E 010°04'714.6
2017-Apr-19 04:00N 43°03' E 010°01'714.5
2017-Apr-19 03:30N 42°56' E 009°58'1810.5
2017-Apr-19 01:48N 42°40' E 010°08'614.3
2017-Apr-19 01:22N 42°35' E 010°14'1114.4
2017-Apr-19 00:37N 42°27' E 010°23'214.7
2017-Apr-19 00:30N 42°26' E 010°24'  
Track history (hours):
 
Tides and Currents Weather Stations Pressure Air Temp Water Temp Dewpoint Dewpoint Depression Visibility Wind Speed Wind Dir Waves Ship Positions

Sovereign

Last reported at 2017-Apr-28 16:15 UTC. Time now 2017-Apr-29 13:23 UTC.
Position N 43°04' E 005°58'.

Length 269 m; draft 7.8 m.

Type: Passenger vessel. MMSI: 249539000.

Date/timePositionNaut miles runAvg speedWind from/ knotsBaromVisibWave heightAir tempDewpointWater temp
2017-Apr-28 16:15N 43°04' E 005°58'2 8.2
2017-Apr-28 16:00N 43°05' E 005°56'2 2.0
2017-Apr-28 15:10N 43°06' E 005°54'0 0.0
2017-Apr-28 14:55N 43°06' E 005°54'0 0.0
2017-Apr-28 13:52N 43°06' E 005°54'0 0.0
2017-Apr-28 13:28N 43°06' E 005°54'0 0.0
2017-Apr-28 12:55N 43°06' E 005°54'0 0.0
2017-Apr-28 12:28N 43°06' E 005°54'0 0.0
2017-Apr-28 11:58N 43°06' E 005°54'0 0.0
2017-Apr-28 11:28N 43°06' E 005°54'0 0.0
2017-Apr-28 10:58N 43°06' E 005°54'0 0.0
2017-Apr-28 10:28N 43°06' E 005°54'0 0.0
2017-Apr-28 09:58N 43°06' E 005°54'0 0.0
2017-Apr-28 09:28N 43°06' E 005°54'0 0.0
2017-Apr-28 08:58N 43°06' E 005°54'0 0.0
2017-Apr-28 08:28N 43°06' E 005°54'0 0.0
2017-Apr-28 07:58N 43°06' E 005°54'0 0.0
2017-Apr-28 07:28N 43°06' E 005°54'0 0.0
2017-Apr-28 06:58N 43°06' E 005°54'0 0.0
2017-Apr-28 06:28N 43°06' E 005°54'0 0.0
2017-Apr-28 06:00N 43°06' E 005°54'0 0.3
2017-Apr-28 05:30N 43°06' E 005°54'2 4.3
2017-Apr-28 05:00N 43°05' E 005°57'3 5.4
2017-Apr-28 04:23N 43°03' E 006°01'34 4.6
2017-Apr-27 20:55N 42°55' E 006°46'6 7.1
2017-Apr-27 20:08N 42°59' E 006°52'4 7.6
2017-Apr-27 19:37N 43°02' E 006°55'1 7.6
2017-Apr-27 19:29N 43°03' E 006°56'4 7.9
2017-Apr-27 19:00N 43°06' E 006°59'510.2
2017-Apr-27 18:30N 43°10' E 007°04'510.5
2017-Apr-27 17:59N 43°14' E 007°08'510.5
2017-Apr-27 17:30N 43°18' E 007°13'510.1
2017-Apr-27 17:00N 43°22' E 007°16'510.2
2017-Apr-27 16:30N 43°27' E 007°17'510.0
2017-Apr-27 16:00N 43°32' E 007°18'5 9.9
2017-Apr-27 15:30N 43°37' E 007°18'4 7.6
2017-Apr-27 15:00N 43°41' E 007°19'1 0.6
2017-Apr-27 13:49N 43°42' E 007°19'0 0.1
2017-Apr-27 13:25N 43°42' E 007°19'0 0.1
2017-Apr-27 12:49N 43°42' E 007°19'0 0.0
2017-Apr-27 12:25N 43°42' E 007°19'0 0.0
2017-Apr-27 11:37N 43°42' E 007°19'0 0.1
2017-Apr-27 11:25N 43°42' E 007°19'0 0.1
2017-Apr-27 10:55N 43°42' E 007°19'0 0.0
2017-Apr-27 09:37N 43°42' E 007°19'0 0.1
2017-Apr-27 08:25N 43°42' E 007°19'0 0.1
2017-Apr-27 07:49N 43°42' E 007°19'0 0.1
2017-Apr-27 07:01N 43°42' E 007°19'0 0.3
2017-Apr-27 06:34N 43°42' E 007°19'0 0.1
2017-Apr-27 06:27N 43°42' E 007°19'1 3.2
2017-Apr-27 06:00N 43°40' E 007°19'4 7.4
2017-Apr-27 05:30N 43°39' E 007°24'5 9.1
2017-Apr-27 05:00N 43°39' E 007°30'510.0
2017-Apr-27 04:30N 43°39' E 007°37'510.9
2017-Apr-27 04:00N 43°38' E 007°45'510.9
2017-Apr-27 03:30N 43°38' E 007°52'611.1
2017-Apr-27 03:00N 43°38' E 007°60'611.4
2017-Apr-27 02:30N 43°37' E 008°08'611.4
2017-Apr-27 01:57N 43°37' E 008°16'1211.4
2017-Apr-27 00:53N 43°36' E 008°33'411.5
2017-Apr-27 00:30N 43°36' E 008°39'611.6
2017-Apr-27 00:00N 43°35' E 008°47'611.6
2017-Apr-26 23:30N 43°35' E 008°55'611.9
2017-Apr-26 23:00N 43°35' E 009°03'611.8
2017-Apr-26 22:30N 43°34' E 009°11'611.6
2017-Apr-26 22:00N 43°34' E 009°19'611.7
2017-Apr-26 21:30N 43°34' E 009°27'611.7
2017-Apr-26 21:00N 43°33' E 009°35'611.5
2017-Apr-26 20:30N 43°33' E 009°43'611.4
2017-Apr-26 20:00N 43°32' E 009°51'611.4
2017-Apr-26 19:30N 43°31' E 009°59'611.7
2017-Apr-26 19:00N 43°30' E 010°07'510.9
2017-Apr-26 18:30N 43°32' E 010°14'3 5.7
2017-Apr-26 17:58N 43°33' E 010°18'0 0.0
2017-Apr-26 17:25N 43°33' E 010°18'0 0.0
2017-Apr-26 16:58N 43°33' E 010°18'0 0.0
2017-Apr-26 16:28N 43°33' E 010°18'0 0.0
2017-Apr-26 15:55N 43°33' E 010°18'0 0.0
2017-Apr-26 15:28N 43°33' E 010°18'0 0.0
2017-Apr-26 14:58N 43°33' E 010°18'0 0.0
2017-Apr-26 14:28N 43°33' E 010°18'0 0.0
2017-Apr-26 13:22N 43°33' E 010°18'0 0.0
2017-Apr-26 12:55N 43°33' E 010°18'0 0.0
2017-Apr-26 12:28N 43°33' E 010°18'0 0.0
2017-Apr-26 11:58N 43°33' E 010°18'0 0.0
2017-Apr-26 11:28N 43°33' E 010°18'0 0.0
2017-Apr-26 10:58N 43°33' E 010°18'0 0.0
2017-Apr-26 10:19N 43°33' E 010°18'0 0.0
2017-Apr-26 09:58N 43°33' E 010°18'0 0.0
2017-Apr-26 09:28N 43°33' E 010°18'0 0.0
2017-Apr-26 08:58N 43°33' E 010°18'0 0.0
2017-Apr-26 08:25N 43°33' E 010°18'0 0.0
2017-Apr-26 07:58N 43°33' E 010°18'0 0.0
2017-Apr-26 07:25N 43°33' E 010°18'0 0.0
2017-Apr-26 06:58N 43°33' E 010°18'0 0.0
2017-Apr-26 06:28N 43°33' E 010°18'0 0.0
2017-Apr-26 05:58N 43°33' E 010°18'0 0.2
2017-Apr-26 05:30N 43°33' E 010°18'3 6.7
2017-Apr-26 05:00N 43°31' E 010°15'4 8.0
2017-Apr-26 04:30N 43°27' E 010°12'510.7
2017-Apr-26 04:00N 43°22' E 010°10'611.5
2017-Apr-26 03:30N 43°17' E 010°07'611.4
2017-Apr-26 03:00N 43°11' E 010°05'510.7
2017-Apr-26 02:30N 43°06' E 010°02'612.3
2017-Apr-26 02:00N 43°00' E 009°59'2110.5
2017-Apr-25 23:58N 42°40' E 010°08'713.7
2017-Apr-25 23:26N 42°34' E 010°15'913.8
2017-Apr-25 22:49N 42°28' E 010°22'4413.1
2017-Apr-25 19:30N 42°00' E 011°08'713.6
2017-Apr-25 19:00N 42°02' E 011°17'125 5.6
2017-Apr-24 20:32N 40°42' E 013°25'014.2
2017-Apr-24 20:30N 40°42' E 013°26'714.2
2017-Apr-24 20:00N 40°40' E 013°35'814.3
2017-Apr-24 19:28N 40°38' E 013°45'714.5
2017-Apr-24 19:00N 40°38' E 013°54'21 2.7
2017-Apr-24 11:21N 40°50' E 014°15'42212.0
2017-Apr-23 00:06N 41°18' E 004°57'4916.8
2017-Apr-22 21:12N 41°17' E 003°52'1416.5
2017-Apr-22 20:23N 41°17' E 003°34'1816.5
2017-Apr-22 19:18N 41°17' E 003°10'1616.5
2017-Apr-22 18:19N 41°17' E 002°49'516.4
2017-Apr-22 18:00N 41°16' E 002°42'916.4
2017-Apr-22 17:28N 41°15' E 002°31'816.5
2017-Apr-22 17:00N 41°15' E 002°20'814.5
2017-Apr-22 16:28N 41°17' E 002°11'4 9.0
2017-Apr-22 16:00N 41°22' E 002°11'0 0.2
2017-Apr-22 15:29N 41°22' E 002°11'0 0.0
2017-Apr-22 14:14N 41°22' E 002°11'0 0.0
2017-Apr-22 13:14N 41°22' E 002°11'0 0.0
2017-Apr-22 12:59N 41°22' E 002°11'0 0.0
2017-Apr-22 12:29N 41°22' E 002°11'0 0.0
2017-Apr-22 11:59N 41°22' E 002°11'0 0.0
2017-Apr-22 11:26N 41°22' E 002°11'0 0.0
2017-Apr-22 10:47N 41°22' E 002°11'0 0.0
2017-Apr-22 09:44N 41°22' E 002°11'0 0.0
2017-Apr-22 07:02N 41°22' E 002°11'0 0.1
2017-Apr-22 06:48N 41°22' E 002°11'0 0.3
2017-Apr-22 06:30N 41°22' E 002°11'5 6.7
2017-Apr-22 05:43N 41°17' E 002°12'414.8
2017-Apr-22 05:26N 41°16' E 002°17'716.0
2017-Apr-22 04:59N 41°17' E 002°27'1215.3
2017-Apr-22 04:14N 41°21' E 002°41'4314.3
2017-Apr-22 01:12N 41°44' E 003°30'414.6
2017-Apr-22 00:54N 41°47' E 003°35'3213.9
2017-Apr-21 22:35N 42°05' E 004°10'3313.8
2017-Apr-21 20:11N 42°24' E 004°47'3215.8
2017-Apr-21 18:11N 42°42' E 005°22'3414.2
2017-Apr-21 15:48N 43°05' E 005°56'2 6.3
2017-Apr-21 15:30N 43°06' E 005°54'0 0.3
2017-Apr-21 14:57N 43°06' E 005°54'0 0.0
2017-Apr-21 14:27N 43°06' E 005°54'0 0.0
2017-Apr-21 13:27N 43°06' E 005°54'0 0.0
2017-Apr-21 12:57N 43°06' E 005°54'0 0.0
2017-Apr-21 12:27N 43°06' E 005°54'0 0.0
2017-Apr-21 11:57N 43°06' E 005°54'0 0.0
2017-Apr-21 11:27N 43°06' E 005°54'0 0.0
2017-Apr-21 10:57N 43°06' E 005°54'0 0.0
2017-Apr-21 10:27N 43°06' E 005°54'0 0.0
2017-Apr-21 09:57N 43°06' E 005°54'0 0.0
2017-Apr-21 09:27N 43°06' E 005°54'0 0.0
2017-Apr-21 08:57N 43°06' E 005°54'0 0.0
2017-Apr-21 08:27N 43°06' E 005°54'0 0.0
2017-Apr-21 07:57N 43°06' E 005°54'0 0.0
2017-Apr-21 07:27N 43°06' E 005°54'0 0.0
2017-Apr-21 06:57N 43°06' E 005°54'0 0.0
2017-Apr-21 06:27N 43°06' E 005°54'0 0.0
2017-Apr-21 05:57N 43°06' E 005°54'0 0.3
2017-Apr-21 05:31N 43°06' E 005°54'1 2.5
2017-Apr-21 05:00N 43°05' E 005°55'4 7.4
2017-Apr-21 04:31N 43°04' E 006°00'40 5.1
2017-Apr-20 20:43N 43°02' E 006°55'2 8.0
2017-Apr-20 20:28N 43°03' E 006°57'4 8.2
2017-Apr-20 20:00N 43°06' E 006°60'4 8.1
2017-Apr-20 19:29N 43°09' E 007°04'4 8.1
2017-Apr-20 19:01N 43°12' E 007°07'4 8.0
2017-Apr-20 18:30N 43°15' E 007°11'4 8.3
2017-Apr-20 18:00N 43°18' E 007°15'4 8.1
2017-Apr-20 17:30N 43°22' E 007°16'4 8.1
2017-Apr-20 17:00N 43°26' E 007°17'4 7.7
2017-Apr-20 16:30N 43°30' E 007°17'4 8.0
2017-Apr-20 16:00N 43°34' E 007°18'4 8.2
2017-Apr-20 15:30N 43°38' E 007°18'3 6.6
2017-Apr-20 15:00N 43°42' E 007°19'0 0.2
2017-Apr-20 13:59N 43°42' E 007°19'0 0.1
2017-Apr-20 13:23N 43°42' E 007°19'0 0.0
2017-Apr-20 12:53N 43°42' E 007°19'0 0.0
2017-Apr-20 12:08N 43°42' E 007°19'0 0.2
2017-Apr-20 11:56N 43°42' E 007°19'0 0.0
2017-Apr-20 11:29N 43°42' E 007°19'0 0.0
2017-Apr-20 10:11N 43°42' E 007°19'0 0.2
2017-Apr-20 09:59N 43°42' E 007°19'0 0.1
2017-Apr-20 07:53N 43°42' E 007°19'0 0.0
2017-Apr-20 06:53N 43°42' E 007°19'0 0.0
2017-Apr-20 06:30N 43°42' E 007°19'1 1.1
2017-Apr-20 06:00N 43°41' E 007°19'3 6.0
2017-Apr-20 05:30N 43°39' E 007°22'4 8.9
2017-Apr-20 05:00N 43°39' E 007°28'611.2
2017-Apr-20 04:30N 43°39' E 007°36'611.9
2017-Apr-20 04:00N 43°38' E 007°44'612.5
2017-Apr-20 03:30N 43°38' E 007°53'612.3
2017-Apr-20 02:59N 43°37' E 008°02'611.9
2017-Apr-20 02:30N 43°37' E 008°10'611.6
2017-Apr-20 02:00N 43°37' E 008°18'611.5
2017-Apr-20 01:30N 43°36' E 008°26'611.6
2017-Apr-20 01:00N 43°36' E 008°33'611.6
2017-Apr-20 00:30N 43°36' E 008°41'611.7
2017-Apr-20 00:00N 43°35' E 008°49'611.5
2017-Apr-19 23:30N 43°35' E 008°57'611.4
2017-Apr-19 23:00N 43°35' E 009°05'611.4
2017-Apr-19 22:30N 43°34' E 009°13'611.3
2017-Apr-19 22:00N 43°34' E 009°21'611.3
2017-Apr-19 21:30N 43°33' E 009°29'611.6
2017-Apr-19 21:00N 43°33' E 009°37'611.5
2017-Apr-19 20:30N 43°33' E 009°45'611.2
2017-Apr-19 20:00N 43°32' E 009°52'510.9
2017-Apr-19 19:30N 43°31' E 009°60'511.0
2017-Apr-19 19:00N 43°30' E 010°07'611.4
2017-Apr-19 18:30N 43°32' E 010°15'3 5.0
2017-Apr-19 18:00N 43°33' E 010°18'0 0.0
2017-Apr-19 17:24N 43°33' E 010°18'0 0.0
2017-Apr-19 16:54N 43°33' E 010°18'0 0.0
2017-Apr-19 16:30N 43°33' E 010°18'0 0.0
2017-Apr-19 16:00N 43°33' E 010°18'0 0.0
2017-Apr-19 15:30N 43°33' E 010°18'0 0.0
2017-Apr-19 15:00N 43°33' E 010°18'0 0.0
2017-Apr-19 14:30N 43°33' E 010°18'0 0.0
2017-Apr-19 13:24N 43°33' E 010°18'0 0.0
2017-Apr-19 13:00N 43°33' E 010°18'0 0.0
2017-Apr-19 12:30N 43°33' E 010°18'0 0.0
2017-Apr-19 11:57N 43°33' E 010°18'0 0.0
2017-Apr-19 11:30N 43°33' E 010°18'0 0.0
2017-Apr-19 11:00N 43°33' E 010°18'0 0.0
2017-Apr-19 10:30N 43°33' E 010°18'0 0.0
2017-Apr-19 10:00N 43°33' E 010°18'0 0.0
2017-Apr-19 09:30N 43°33' E 010°18'0 0.0
2017-Apr-19 09:00N 43°33' E 010°18'0 0.0
2017-Apr-19 08:24N 43°33' E 010°18'0 0.0
2017-Apr-19 08:00N 43°33' E 010°18'0 0.0
2017-Apr-19 07:30N 43°33' E 010°18'0 0.0
2017-Apr-19 07:00N 43°33' E 010°18'0 0.7
2017-Apr-19 06:30N 43°33' E 010°17'4 7.2
2017-Apr-19 06:01N 43°30' E 010°15'714.0
2017-Apr-19 05:31N 43°23' E 010°11'714.3
2017-Apr-19 05:01N 43°17' E 010°07'714.4
2017-Apr-19 04:31N 43°10' E 010°04'714.6
2017-Apr-19 04:00N 43°03' E 010°01'714.5
2017-Apr-19 03:30N 42°56' E 009°58'1810.5
2017-Apr-19 01:48N 42°40' E 010°08'614.3
2017-Apr-19 01:22N 42°35' E 010°14'1114.4
2017-Apr-19 00:37N 42°27' E 010°23'214.7
2017-Apr-19 00:30N 42°26' E 010°24'  

Dump ship's entire track history